createdAt,value
2018-04-16T00:01:41.190Z,73.21
2018-04-16T00:06:43.274Z,74.76
2018-04-16T00:11:44.594Z,74.56
2018-04-16T00:16:46.650Z,74.29
2018-04-16T00:21:47.983Z,73.36
2018-04-16T00:26:50.061Z,73.42
2018-04-16T00:31:57.616Z,73.63
2018-04-16T00:37:05.661Z,73.70
2018-04-16T00:42:13.939Z,73.81
2018-04-16T00:47:21.409Z,73.72
2018-04-16T00:52:28.618Z,73.63
2018-04-16T00:57:36.106Z,74.41
2018-04-16T01:02:43.498Z,74.87
2018-04-16T01:07:50.745Z,74.42
2018-04-16T01:12:58.162Z,74.63
2018-04-16T01:18:05.628Z,74.70
2018-04-16T01:23:13.041Z,74.48
2018-04-16T01:28:20.569Z,74.57
2018-04-16T01:33:28.009Z,74.73
2018-04-16T01:38:35.393Z,74.27
2018-04-16T01:43:42.774Z,74.57
2018-04-16T01:54:35.232Z,74.65
2018-04-16T01:59:42.743Z,73.96
2018-04-16T02:04:50.226Z,73.83
2018-04-16T02:09:58.440Z,73.83
2018-04-16T02:15:05.786Z,74.81
2018-04-16T02:20:13.118Z,75.98
2018-04-16T02:25:20.469Z,75.62
2018-04-16T02:30:28.630Z,75.27
2018-04-16T02:35:36.618Z,75.53
2018-04-16T02:40:44.030Z,74.99
2018-04-16T02:45:51.359Z,74.68
2018-04-16T02:50:58.768Z,74.79
2018-04-16T02:56:06.858Z,75.15
2018-04-16T03:01:14.234Z,75.60
2018-04-16T03:06:21.799Z,77.00
2018-04-16T03:11:29.081Z,76.56
2018-04-16T03:16:36.581Z,77.69
2018-04-16T03:21:43.942Z,76.75
2018-04-16T03:26:51.375Z,76.96
2018-04-16T03:31:58.685Z,76.55
2018-04-16T03:37:06.157Z,76.13
2018-04-16T03:42:13.527Z,75.74
2018-04-16T03:47:21.001Z,75.37
2018-04-16T03:52:28.350Z,75.03
2018-04-16T03:57:29.669Z,75.20
2018-04-16T04:02:31.738Z,75.16
2018-04-16T04:07:33.029Z,74.84
2018-04-16T04:12:34.340Z,75.45
2018-04-16T04:17:36.393Z,76.00
2018-04-16T04:22:56.117Z,76.20
2018-04-16T04:28:16.117Z,75.92
2018-04-16T04:33:17.431Z,75.81
2018-04-16T04:38:18.747Z,75.19
2018-04-16T04:43:20.048Z,75.26
2018-04-16T04:48:21.361Z,75.06
2018-04-16T04:53:23.405Z,74.75
2018-04-16T04:58:24.744Z,74.69
2018-04-16T05:03:26.821Z,74.79
2018-04-16T05:08:28.138Z,74.48
2018-04-16T05:13:29.422Z,74.44
2018-04-16T05:18:31.485Z,74.08
2018-04-16T05:23:32.832Z,73.48
2018-04-16T05:28:34.894Z,73.70
2018-04-16T05:33:36.216Z,74.01
2018-04-16T05:38:37.523Z,73.86
2018-04-16T05:43:39.592Z,73.03
2018-04-16T05:48:40.906Z,72.53
2018-04-16T05:53:42.957Z,71.92
2018-04-16T05:58:44.267Z,71.10
2018-04-16T06:03:45.594Z,70.20
2018-04-16T06:08:47.653Z,69.91
2018-04-16T06:13:48.974Z,69.67
2018-04-16T06:18:50.303Z,69.41
2018-04-16T06:23:51.614Z,69.23
2018-04-16T06:28:52.926Z,69.22
2018-04-16T06:33:54.221Z,69.24
2018-04-16T06:38:55.530Z,69.23
2018-04-16T06:43:57.585Z,69.45
2018-04-16T06:48:58.925Z,69.44
2018-04-16T06:54:00.953Z,69.64
2018-04-16T06:59:02.304Z,70.04
2018-04-16T07:04:03.655Z,70.22
2018-04-16T07:09:05.761Z,69.56
2018-04-16T07:14:07.082Z,69.11
2018-04-16T07:19:08.429Z,68.67
2018-04-16T07:24:09.734Z,68.06
2018-04-16T07:29:11.053Z,67.71
2018-04-16T07:34:12.350Z,67.10
2018-04-16T07:39:14.411Z,65.84
2018-04-16T07:44:15.718Z,64.80
2018-04-16T07:49:17.033Z,63.95
2018-04-16T07:54:18.327Z,64.81
2018-04-16T07:59:19.618Z,65.83
2018-04-16T08:04:21.671Z,66.49
2018-04-16T08:09:22.968Z,66.38
2018-04-16T08:14:24.288Z,63.50
2018-04-16T08:19:26.350Z,62.78
2018-04-16T08:24:27.807Z,62.36
2018-04-16T08:29:29.118Z,61.46
2018-04-16T08:34:30.409Z,60.80
2018-04-16T08:39:31.733Z,60.17
2018-04-16T08:44:33.029Z,59.60
2018-04-16T08:49:34.330Z,59.57
2018-04-16T08:54:35.665Z,59.27
2018-04-16T08:59:36.979Z,59.06
2018-04-16T09:04:38.310Z,57.99
2018-04-16T09:09:40.382Z,58.04
2018-04-16T09:14:41.734Z,56.55
2018-04-16T09:19:43.041Z,56.94
2018-04-16T09:24:44.347Z,57.36
2018-04-16T09:29:45.650Z,55.06
2018-04-16T09:34:46.968Z,52.79
2018-04-16T09:39:48.318Z,52.96
2018-04-16T09:44:49.611Z,52.09
2018-04-16T09:49:50.918Z,52.69
2018-04-16T09:54:52.219Z,50.93
2018-04-16T09:59:54.261Z,50.97
2018-04-16T10:04:55.563Z,50.90
2018-04-16T10:09:57.037Z,49.43
2018-04-16T10:14:58.357Z,50.51
2018-04-16T10:19:59.688Z,50.28
2018-04-16T10:25:01.804Z,51.36
2018-04-16T10:30:03.859Z,51.87
2018-04-16T10:35:06.184Z,50.45
2018-04-16T10:40:08.289Z,50.38
2018-04-16T10:45:09.634Z,50.86
2018-04-16T10:50:10.991Z,49.17
2018-04-16T10:55:12.319Z,47.93
2018-04-16T11:00:13.646Z,46.32
2018-04-16T11:05:14.984Z,49.52
2018-04-16T11:10:16.318Z,48.91
2018-04-16T11:15:17.655Z,50.50
2018-04-16T11:20:19.740Z,49.06
2018-04-16T11:25:21.053Z,49.19
2018-04-16T11:30:23.137Z,50.13
2018-04-16T11:35:24.462Z,48.67
2018-04-16T11:40:25.762Z,48.27
2018-04-16T11:45:27.069Z,45.31
2018-04-16T11:50:28.394Z,47.34
2018-04-16T11:55:29.730Z,50.22
2018-04-16T12:00:31.068Z,49.37
2018-04-16T12:05:32.378Z,48.41
2018-04-16T12:10:34.438Z,46.15
2018-04-16T12:15:35.753Z,44.84
2018-04-16T12:20:37.087Z,44.46
2018-04-16T12:25:38.439Z,46.64
2018-04-16T12:30:39.762Z,50.30
2018-04-16T12:35:41.087Z,53.52
2018-04-16T12:40:42.418Z,55.68
2018-04-16T12:45:44.508Z,58.72
2018-04-16T12:50:45.861Z,58.05
2018-04-16T12:55:47.177Z,58.16
2018-04-16T13:00:48.510Z,56.71
2018-04-16T13:05:49.841Z,51.11
2018-04-16T13:10:51.151Z,50.19
2018-04-16T13:15:52.470Z,49.16
2018-04-16T13:20:54.511Z,48.04
2018-04-16T13:25:55.842Z,48.49
2018-04-16T13:30:57.180Z,47.70
2018-04-16T13:35:58.518Z,45.73
2018-04-16T13:40:59.836Z,45.03
2018-04-16T13:46:01.895Z,42.66
2018-04-16T13:51:03.277Z,43.45
2018-04-16T13:56:04.626Z,45.59
2018-04-16T14:01:05.937Z,43.86
2018-04-16T14:06:07.254Z,43.09
2018-04-16T14:11:08.617Z,44.61
2018-04-16T14:16:09.960Z,45.05
2018-04-16T14:21:11.281Z,43.69
2018-04-16T14:26:12.606Z,45.66
2018-04-16T14:31:13.924Z,41.97
2018-04-16T14:36:15.234Z,39.66
2018-04-16T14:41:17.317Z,42.13
2018-04-16T14:46:18.689Z,43.48
2018-04-16T14:51:20.061Z,41.68
2018-04-16T14:56:21.382Z,41.79
2018-04-16T15:01:22.727Z,40.52
2018-04-16T15:06:24.077Z,42.26
2018-04-16T15:11:26.166Z,41.55
2018-04-16T15:16:27.485Z,40.81
2018-04-16T15:21:29.539Z,39.23
2018-04-16T15:26:30.855Z,40.44
2018-04-16T15:31:32.166Z,39.82
2018-04-16T15:36:34.217Z,38.02
2018-04-16T15:41:35.517Z,39.35
2018-04-16T15:46:36.840Z,40.77
2018-04-16T15:51:38.171Z,41.82
2018-04-16T15:56:39.486Z,42.29
2018-04-16T16:01:40.798Z,40.94
2018-04-16T16:06:42.105Z,39.78
2018-04-16T16:11:44.294Z,37.85
2018-04-16T16:16:45.592Z,38.93
2018-04-16T16:21:47.665Z,41.44
2018-04-16T16:26:48.985Z,42.12
2018-04-16T16:31:50.377Z,42.67
2018-04-16T16:36:51.692Z,44.08
2018-04-16T16:41:53.030Z,45.26
2018-04-16T16:46:54.341Z,46.00
2018-04-16T16:51:55.671Z,46.48
2018-04-16T16:56:56.994Z,46.92
2018-04-16T17:01:58.327Z,47.12
2018-04-16T17:07:00.405Z,47.11
2018-04-16T17:12:01.721Z,47.16
2018-04-16T17:17:03.770Z,47.17
2018-04-16T17:22:05.103Z,46.89
2018-04-16T17:27:07.162Z,46.32
2018-04-16T17:32:08.514Z,46.69
2018-04-16T17:37:09.856Z,46.84
2018-04-16T17:42:11.198Z,47.19
2018-04-16T17:47:12.527Z,47.49
2018-04-16T17:52:14.000Z,48.44
2018-04-16T17:57:15.317Z,49.28
2018-04-16T18:02:16.622Z,49.71
2018-04-16T18:07:18.695Z,49.66
2018-04-16T18:12:20.025Z,49.44
2018-04-16T18:17:21.359Z,49.83
2018-04-16T18:22:22.689Z,50.26
2018-04-16T18:27:24.095Z,50.67
2018-04-16T18:32:25.456Z,51.00
2018-04-16T18:37:26.786Z,51.15
2018-04-16T18:42:28.869Z,51.60
2018-04-16T18:47:30.229Z,52.09
2018-04-16T18:52:31.594Z,51.84
2018-04-16T18:57:32.965Z,52.36
2018-04-16T19:02:35.025Z,52.81
2018-04-16T19:07:36.422Z,53.37
2018-04-16T19:12:39.140Z,53.98
2018-04-16T19:17:47.018Z,54.07
2018-04-16T19:22:48.633Z,54.17
2018-04-16T19:33:34.069Z,57.93
2018-04-16T19:38:35.411Z,60.15
2018-04-16T19:43:37.531Z,61.64
2018-04-16T19:48:44.931Z,62.53
2018-04-16T19:53:46.293Z,63.06
2018-04-16T19:58:47.610Z,63.78
2018-04-16T20:03:55.756Z,64.86
2018-04-16T20:08:57.049Z,64.53
2018-04-16T20:13:58.380Z,64.83
2018-04-16T20:18:59.673Z,65.62
2018-04-16T20:24:00.962Z,66.23
2018-04-16T20:29:02.335Z,66.10
2018-04-16T20:34:03.672Z,66.57
2018-04-16T20:39:05.026Z,66.25
2018-04-16T20:44:06.430Z,66.45
2018-04-16T20:49:07.769Z,66.45
2018-04-16T20:54:09.126Z,66.54
2018-04-16T20:59:10.450Z,66.21
2018-04-16T21:04:12.510Z,66.77
2018-04-16T21:09:13.850Z,66.67
2018-04-16T21:14:15.153Z,66.32
2018-04-16T21:19:17.231Z,66.95
2018-04-16T21:24:18.535Z,67.46
2018-04-16T21:29:19.829Z,67.70
2018-04-16T21:34:21.906Z,67.95
2018-04-16T21:39:23.209Z,67.75
2018-04-16T21:44:24.525Z,68.33
2018-04-16T21:49:25.865Z,68.11
2018-04-16T21:54:27.200Z,68.14
2018-04-16T21:59:29.270Z,69.01
2018-04-16T22:04:31.377Z,69.19
2018-04-16T22:09:32.735Z,68.67
2018-04-16T22:14:34.073Z,68.63
2018-04-16T22:19:35.449Z,69.19
2018-04-16T22:24:36.763Z,69.33
2018-04-16T22:29:38.069Z,68.95
2018-04-16T22:34:39.438Z,68.92
2018-04-16T22:39:41.508Z,68.99
2018-04-16T22:44:42.845Z,69.03
2018-04-16T22:49:44.170Z,68.69
2018-04-16T22:54:45.477Z,69.30
2018-04-16T22:59:46.793Z,69.26
2018-04-16T23:04:48.101Z,69.64
2018-04-16T23:09:49.401Z,70.04
2018-04-16T23:14:50.694Z,69.78
2018-04-16T23:19:51.991Z,69.59
2018-04-16T23:24:53.325Z,69.27
2018-04-16T23:29:54.633Z,69.89
2018-04-16T23:34:56.677Z,70.21
2018-04-16T23:39:58.026Z,69.89
2018-04-16T23:44:59.345Z,69.71
2018-04-16T23:50:00.647Z,70.18
2018-04-16T23:55:01.985Z,70.07
